createdAt,value
2023-04-05T00:01:15.785Z,98074.00
2023-04-05T00:03:45.417Z,98076.00
2023-04-05T00:06:16.587Z,98082.00
2023-04-05T00:08:50.278Z,98076.00
2023-04-05T00:11:19.695Z,98060.00
2023-04-05T00:13:47.919Z,98064.00
2023-04-05T00:16:17.017Z,98077.00
2023-04-05T00:18:51.550Z,98064.00
2023-04-05T00:21:21.675Z,98061.00
2023-04-05T00:23:51.210Z,98070.00
2023-04-05T00:26:20.324Z,98062.00
2023-04-05T00:28:53.648Z,98067.00
2023-04-05T00:31:21.931Z,98061.00
2023-04-05T00:33:51.441Z,98068.00
2023-04-05T00:36:21.673Z,98055.00
2023-04-05T00:38:50.494Z,98069.00
2023-04-05T00:41:18.952Z,98054.00
2023-04-05T00:43:48.513Z,98050.00
2023-04-05T00:46:18.096Z,98055.00
2023-04-05T00:48:47.065Z,98059.00
2023-04-05T00:51:17.350Z,98056.00
2023-04-05T00:53:47.737Z,98063.00
2023-04-05T00:56:17.236Z,98056.00
2023-04-05T00:58:45.327Z,98040.00
2023-04-05T01:01:19.896Z,98040.00
2023-04-05T01:03:54.692Z,98050.00
2023-04-05T01:06:44.086Z,98048.00
2023-04-05T01:09:29.578Z,98036.00
2023-04-05T01:12:01.351Z,98027.00
2023-04-05T01:14:29.614Z,98030.00
2023-04-05T01:16:58.911Z,98047.00
2023-04-05T01:19:30.813Z,98018.00
2023-04-05T01:22:52.092Z,98017.00
2023-04-05T01:26:03.533Z,98009.00
2023-04-05T01:29:05.319Z,97992.00
2023-04-05T01:31:43.781Z,98001.00
2023-04-05T01:34:27.448Z,98007.00
2023-04-05T01:36:59.121Z,97999.00
2023-04-05T01:39:31.107Z,97997.00
2023-04-05T01:42:01.123Z,97988.00
2023-04-05T01:44:29.697Z,97995.00
2023-04-05T01:46:59.188Z,97989.00
2023-04-05T01:49:27.670Z,97976.00
2023-04-05T01:51:55.822Z,97998.00
2023-04-05T01:54:24.042Z,97975.00
2023-04-05T01:56:52.220Z,97986.00
2023-04-05T01:59:20.600Z,97983.00
2023-04-05T02:01:48.916Z,97984.00
2023-04-05T02:04:18.790Z,97985.00
2023-04-05T02:06:46.914Z,97979.00
2023-04-05T02:09:15.127Z,97981.00
2023-04-05T02:11:43.422Z,97978.00
2023-04-05T02:14:13.304Z,97983.00
2023-04-05T02:16:43.259Z,97985.00
2023-04-05T02:19:13.149Z,97996.00
2023-04-05T02:21:42.944Z,97993.00
2023-04-05T02:24:11.130Z,97990.00
2023-04-05T02:26:39.937Z,97996.00
2023-04-05T02:29:08.394Z,97980.00
2023-04-05T02:31:36.705Z,97983.00
2023-04-05T02:34:05.780Z,97982.00
2023-04-05T02:36:34.354Z,97978.00
2023-04-05T02:39:05.617Z,97986.00
2023-04-05T02:41:33.838Z,97994.00
2023-04-05T02:44:02.351Z,97980.00
2023-04-05T02:46:31.982Z,97984.00
2023-04-05T02:49:01.230Z,97986.00
2023-04-05T02:51:34.452Z,97993.00
2023-04-05T02:54:07.749Z,97984.00
2023-04-05T02:56:37.737Z,97967.00
2023-04-05T02:59:13.513Z,97978.00
2023-04-05T03:01:44.845Z,97974.00
2023-04-05T03:04:21.758Z,97972.00
2023-04-05T03:06:52.147Z,97977.00
2023-04-05T03:09:23.446Z,97970.00
2023-04-05T03:11:57.195Z,97967.00
2023-04-05T03:14:25.602Z,97964.00
2023-04-05T03:16:53.952Z,97974.00
2023-04-05T03:19:35.883Z,97954.00
2023-04-05T03:22:21.300Z,97957.00
2023-04-05T03:24:52.524Z,97953.00
2023-04-05T03:27:21.950Z,97948.00
2023-04-05T03:30:22.670Z,97949.00
2023-04-05T03:33:01.198Z,97945.00
2023-04-05T03:35:38.680Z,97945.00
2023-04-05T03:38:09.789Z,97952.00
2023-04-05T03:40:45.016Z,97953.00
2023-04-05T03:43:13.464Z,97935.00
2023-04-05T03:45:41.980Z,97948.00
2023-04-05T03:48:10.478Z,97946.00
2023-04-05T03:50:38.708Z,97947.00
2023-04-05T03:53:06.954Z,97961.00
2023-04-05T03:55:35.504Z,97952.00
2023-04-05T03:58:07.790Z,97969.00
2023-04-05T04:00:37.772Z,97953.00
2023-04-05T04:03:28.792Z,97958.00
2023-04-05T04:05:57.726Z,97963.00
2023-04-05T04:08:26.370Z,97967.00
2023-04-05T04:10:54.576Z,97981.00
2023-04-05T04:13:30.273Z,97978.00
2023-04-05T04:16:06.051Z,97961.00
2023-04-05T04:18:45.310Z,97963.00
2023-04-05T04:21:39.783Z,97959.00
2023-04-05T04:24:23.141Z,97956.00
2023-04-05T04:27:10.551Z,97960.00
2023-04-05T04:30:01.924Z,97958.00
2023-04-05T04:32:54.590Z,97970.00
2023-04-05T04:35:55.006Z,97969.00
2023-04-05T04:38:45.353Z,97978.00
2023-04-05T04:41:47.137Z,97971.00
2023-04-05T04:44:44.482Z,97964.00
2023-04-05T04:47:43.096Z,97970.00
2023-04-05T04:50:37.609Z,97959.00
2023-04-05T04:53:06.700Z,97963.00
2023-04-05T04:55:36.143Z,97976.00
2023-04-05T04:58:10.030Z,97977.00
2023-04-05T05:00:41.047Z,97960.00
2023-04-05T05:03:11.853Z,97972.00
2023-04-05T05:05:44.230Z,97965.00
2023-04-05T05:08:12.699Z,97972.00
2023-04-05T05:10:43.360Z,97968.00
2023-04-05T05:13:12.153Z,97965.00
2023-04-05T05:15:42.030Z,97979.00
2023-04-05T05:18:12.414Z,97968.00
2023-04-05T05:20:41.529Z,97973.00
2023-04-05T05:23:09.939Z,97969.00
2023-04-05T05:25:38.674Z,97978.00
2023-04-05T05:28:07.161Z,97980.00
2023-04-05T05:30:35.541Z,97974.00
2023-04-05T05:33:03.822Z,97972.00
2023-04-05T05:35:33.416Z,97979.00
2023-04-05T05:38:02.708Z,97986.00
2023-04-05T05:40:30.984Z,97985.00
2023-04-05T05:42:59.155Z,98002.00
2023-04-05T05:45:27.354Z,97991.00
2023-04-05T05:47:57.078Z,97995.00
2023-04-05T05:50:25.570Z,97991.00
2023-04-05T05:52:55.444Z,97981.00
2023-04-05T05:55:23.663Z,97990.00
2023-04-05T05:57:52.847Z,97981.00
2023-04-05T06:00:22.777Z,97988.00
2023-04-05T06:02:52.198Z,97982.00
2023-04-05T06:05:20.492Z,97991.00
2023-04-05T06:07:48.646Z,97988.00
2023-04-05T06:10:18.376Z,97993.00
2023-04-05T06:12:46.971Z,97994.00
2023-04-05T06:15:15.318Z,98002.00
2023-04-05T06:17:43.626Z,97999.00
2023-04-05T06:20:12.662Z,98003.00
2023-04-05T06:22:41.824Z,97995.00
2023-04-05T06:25:12.741Z,97999.00
2023-04-05T06:27:42.269Z,97987.00
2023-04-05T06:30:11.811Z,97982.00
2023-04-05T06:32:40.094Z,97988.00
2023-04-05T06:35:10.340Z,97992.00
2023-04-05T06:37:38.581Z,97986.00
2023-04-05T06:40:08.886Z,97987.00
2023-04-05T06:42:37.232Z,97989.00
2023-04-05T06:45:10.053Z,97994.00
2023-04-05T06:47:39.903Z,97998.00
2023-04-05T06:50:11.244Z,97989.00
2023-04-05T06:52:40.339Z,97995.00
2023-04-05T06:55:09.702Z,97984.00
2023-04-05T06:57:37.958Z,97992.00
2023-04-05T07:00:11.708Z,97988.00
2023-04-05T07:02:40.545Z,98003.00
2023-04-05T07:05:09.682Z,97992.00
2023-04-05T07:07:40.838Z,97987.00
2023-04-05T07:10:10.427Z,97998.00
2023-04-05T07:12:38.844Z,98004.00
2023-04-05T07:15:10.179Z,97995.00
2023-04-05T07:17:38.327Z,98004.00
2023-04-05T07:20:08.377Z,98001.00
2023-04-05T07:22:36.721Z,98006.00
2023-04-05T07:25:05.700Z,97996.00
2023-04-05T07:27:34.985Z,98003.00
2023-04-05T07:30:03.335Z,97986.00
2023-04-05T07:32:33.015Z,97986.00
2023-04-05T07:35:01.377Z,97985.00
2023-04-05T07:37:29.578Z,97989.00
2023-04-05T07:39:58.390Z,97989.00
2023-04-05T07:42:27.936Z,98003.00
2023-04-05T07:44:56.195Z,97989.00
2023-04-05T07:47:24.525Z,97997.00
2023-04-05T07:49:54.216Z,97982.00
2023-04-05T07:52:22.450Z,97990.00
2023-04-05T07:54:52.244Z,97978.00
2023-04-05T07:57:20.927Z,97984.00
2023-04-05T07:59:52.596Z,97983.00
2023-04-05T08:02:20.975Z,97987.00
2023-04-05T08:04:49.185Z,97983.00
2023-04-05T08:07:18.775Z,97983.00
2023-04-05T08:09:47.022Z,97980.00
2023-04-05T08:12:15.310Z,97978.00
2023-04-05T08:14:43.475Z,97967.00
2023-04-05T08:17:11.643Z,97970.00
2023-04-05T08:19:39.842Z,97965.00
2023-04-05T08:22:08.174Z,97965.00
2023-04-05T08:24:38.310Z,97967.00
2023-04-05T08:27:06.661Z,97964.00
2023-04-05T08:29:35.211Z,97971.00
2023-04-05T08:32:04.236Z,97972.00
2023-04-05T08:34:32.566Z,97973.00
2023-04-05T08:37:01.249Z,97969.00
2023-04-05T08:39:29.507Z,97961.00
2023-04-05T08:42:16.338Z,97973.00
2023-04-05T08:44:46.843Z,97969.00
2023-04-05T08:47:20.660Z,97976.00
2023-04-05T08:49:49.048Z,97960.00
2023-04-05T08:52:17.506Z,97963.00
2023-04-05T08:54:45.724Z,97964.00
2023-04-05T08:57:15.872Z,97971.00
2023-04-05T08:59:46.800Z,97976.00
2023-04-05T09:02:21.025Z,97974.00
2023-04-05T09:04:51.572Z,97967.00
2023-04-05T09:07:22.168Z,97968.00
2023-04-05T09:09:57.050Z,97961.00
2023-04-05T09:12:28.043Z,97962.00
2023-04-05T09:14:57.110Z,97957.00
2023-04-05T09:17:26.176Z,97960.00
2023-04-05T09:19:54.324Z,97973.00
2023-04-05T09:22:24.700Z,97957.00
2023-04-05T09:24:53.029Z,97958.00
2023-04-05T09:27:23.632Z,97952.00
2023-04-05T09:30:02.194Z,97963.00
2023-04-05T09:32:31.047Z,97954.00
2023-04-05T09:35:04.079Z,97963.00
2023-04-05T09:37:34.226Z,97951.00
2023-04-05T09:40:06.907Z,97954.00
2023-04-05T09:42:46.081Z,97946.00
2023-04-05T09:45:18.245Z,97953.00
2023-04-05T09:47:59.415Z,97958.00
2023-04-05T09:50:27.955Z,97950.00
2023-04-05T09:53:09.401Z,97953.00
2023-04-05T09:55:38.181Z,97949.00
2023-04-05T09:58:06.442Z,97949.00
2023-04-05T10:00:38.323Z,97943.00
2023-04-05T10:03:06.734Z,97951.00
2023-04-05T10:05:34.913Z,97949.00
2023-04-05T10:08:04.166Z,97950.00
2023-04-05T10:10:39.828Z,97953.00
2023-04-05T10:13:09.353Z,97947.00
2023-04-05T10:15:38.969Z,97948.00
2023-04-05T10:18:15.397Z,97944.00
2023-04-05T10:20:51.143Z,97958.00
2023-04-05T10:23:28.794Z,97951.00
2023-04-05T10:26:09.104Z,97960.00
2023-04-05T10:28:39.089Z,97960.00
2023-04-05T10:31:34.263Z,97954.00
2023-04-05T10:34:08.261Z,97929.00
2023-04-05T10:36:46.456Z,97933.00
2023-04-05T10:39:20.214Z,97941.00
2023-04-05T10:41:53.765Z,97946.00
2023-04-05T10:44:26.786Z,97942.00
2023-04-05T10:46:58.411Z,97941.00
2023-04-05T10:49:35.725Z,97939.00
2023-04-05T10:52:05.276Z,97925.00
2023-04-05T10:54:37.116Z,97942.00
2023-04-05T10:57:10.683Z,97944.00
2023-04-05T10:59:44.793Z,97940.00
2023-04-05T11:02:15.876Z,97931.00
2023-04-05T11:04:44.878Z,97932.00
2023-04-05T11:07:15.412Z,97927.00
2023-04-05T11:09:57.554Z,97927.00
2023-04-05T11:13:06.413Z,97917.00
2023-04-05T11:15:36.252Z,97912.00
2023-04-05T11:18:09.815Z,97915.00
2023-04-05T11:20:46.982Z,97918.00
2023-04-05T11:23:17.166Z,97911.00
2023-04-05T11:25:53.500Z,97911.00
2023-04-05T11:28:29.218Z,97900.00
2023-04-05T11:30:59.015Z,97903.00
2023-04-05T11:33:59.328Z,97904.00
2023-04-05T11:36:42.041Z,97906.00
2023-04-05T11:39:30.974Z,97894.00
2023-04-05T11:42:04.894Z,97906.00
2023-04-05T11:44:43.792Z,97899.00
2023-04-05T11:47:12.433Z,97892.00
2023-04-05T11:49:42.563Z,97905.00
2023-04-05T11:52:16.677Z,97893.00
2023-04-05T11:54:49.615Z,97894.00
2023-04-05T11:57:22.829Z,97893.00
2023-04-05T11:59:53.054Z,97881.00
2023-04-05T12:02:22.482Z,97885.00
2023-04-05T12:04:57.906Z,97883.00
2023-04-05T12:07:29.681Z,97879.00
2023-04-05T12:10:05.639Z,97886.00
2023-04-05T12:12:39.322Z,97878.00
2023-04-05T12:15:10.711Z,97873.00
2023-04-05T12:17:47.398Z,97861.00
2023-04-05T12:20:20.735Z,97875.00
2023-04-05T12:22:51.178Z,97856.00
2023-04-05T12:25:21.033Z,97866.00
2023-04-05T12:27:49.280Z,97859.00
2023-04-05T12:30:19.577Z,97861.00
2023-04-05T12:32:52.063Z,97854.00
2023-04-05T12:35:24.372Z,97856.00
2023-04-05T12:37:52.843Z,97850.00
2023-04-05T12:40:25.104Z,97849.00
2023-04-05T12:42:53.639Z,97851.00
2023-04-05T12:45:25.282Z,97856.00
2023-04-05T12:48:01.221Z,97848.00
2023-04-05T12:50:32.671Z,97834.00
2023-04-05T12:53:05.841Z,97845.00
2023-04-05T12:55:43.683Z,97841.00
2023-04-05T12:58:13.342Z,97837.00
2023-04-05T13:00:41.945Z,97832.00
2023-04-05T13:03:20.438Z,97823.00
2023-04-05T13:05:50.418Z,97828.00
2023-04-05T13:08:19.211Z,97824.00
2023-04-05T13:10:48.863Z,97821.00
2023-04-05T13:13:20.530Z,97814.00
2023-04-05T13:15:50.009Z,97820.00
2023-04-05T13:18:20.578Z,97817.00
2023-04-05T13:20:50.339Z,97821.00
2023-04-05T13:23:18.626Z,97811.00
2023-04-05T13:25:46.932Z,97817.00
2023-04-05T13:28:15.114Z,97807.00
2023-04-05T13:30:43.531Z,97798.00
2023-04-05T13:33:11.742Z,97802.00
2023-04-05T13:35:40.226Z,97795.00
2023-04-05T13:38:09.908Z,97801.00
2023-04-05T13:40:38.189Z,97799.00
2023-04-05T13:43:06.647Z,97788.00
2023-04-05T13:45:34.893Z,97778.00
2023-04-05T13:48:03.469Z,97790.00
2023-04-05T13:50:31.793Z,97788.00
2023-04-05T13:53:00.107Z,97780.00
2023-04-05T13:55:29.833Z,97781.00
2023-04-05T13:57:58.023Z,97789.00
2023-04-05T14:00:26.486Z,97776.00
2023-04-05T14:02:54.946Z,97783.00
2023-04-05T14:05:23.179Z,97785.00
2023-04-05T14:07:51.488Z,97781.00
2023-04-05T14:10:21.509Z,97779.00
2023-04-05T14:12:51.179Z,97777.00
2023-04-05T14:15:19.650Z,97774.00
2023-04-05T14:17:48.088Z,97771.00
2023-04-05T14:20:16.681Z,97761.00
2023-04-05T14:22:45.043Z,97766.00
2023-04-05T14:25:13.402Z,97769.00
2023-04-05T14:27:42.479Z,97773.00
2023-04-05T14:30:13.832Z,97766.00
2023-04-05T14:32:43.057Z,97761.00
2023-04-05T14:35:11.782Z,97769.00
2023-04-05T14:37:40.304Z,97759.00
2023-04-05T14:40:09.830Z,97760.00
2023-04-05T14:42:48.533Z,97759.00
2023-04-05T14:45:19.474Z,97756.00
2023-04-05T14:47:47.773Z,97758.00
2023-04-05T14:50:16.326Z,97766.00
2023-04-05T14:52:45.369Z,97748.00
2023-04-05T14:55:14.055Z,97752.00
2023-04-05T14:57:42.538Z,97750.00
2023-04-05T15:00:12.831Z,97751.00
2023-04-05T15:02:43.196Z,97747.00
2023-04-05T15:05:11.870Z,97752.00
2023-04-05T15:07:40.303Z,97747.00
2023-04-05T15:10:09.598Z,97744.00
2023-04-05T15:12:38.127Z,97746.00
2023-04-05T15:15:08.069Z,97758.00
2023-04-05T15:17:36.576Z,97741.00
2023-04-05T15:20:07.810Z,97751.00
2023-04-05T15:22:36.613Z,97752.00
2023-04-05T15:25:05.706Z,97743.00
2023-04-05T15:27:34.203Z,97743.00
2023-04-05T15:30:02.555Z,97745.00
2023-04-05T15:32:33.679Z,97729.00
2023-04-05T15:35:02.478Z,97740.00
2023-04-05T15:37:32.145Z,97737.00
2023-04-05T15:40:03.227Z,97729.00
2023-04-05T15:42:32.084Z,97738.00
2023-04-05T15:45:00.435Z,97735.00
2023-04-05T15:47:28.885Z,97737.00
2023-04-05T15:49:57.271Z,97738.00
2023-04-05T15:52:25.713Z,97735.00
2023-04-05T15:54:55.492Z,97732.00
2023-04-05T15:57:24.734Z,97734.00
2023-04-05T15:59:54.405Z,97738.00
2023-04-05T16:02:22.855Z,97737.00
2023-04-05T16:04:51.255Z,97731.00
2023-04-05T16:07:19.652Z,97735.00
2023-04-05T16:09:47.971Z,97735.00
2023-04-05T16:12:17.709Z,97729.00
2023-04-05T16:14:46.164Z,97720.00
2023-04-05T16:17:14.572Z,97730.00
2023-04-05T16:19:42.932Z,97730.00
2023-04-05T16:22:11.492Z,97726.00
2023-04-05T16:24:40.052Z,97729.00
2023-04-05T16:27:08.457Z,97730.00
2023-04-05T16:29:38.126Z,97730.00
2023-04-05T16:32:06.721Z,97731.00
2023-04-05T16:34:35.299Z,97724.00
2023-04-05T16:37:03.701Z,97736.00
2023-04-05T16:39:32.299Z,97733.00
2023-04-05T16:42:00.968Z,97725.00
2023-04-05T16:44:31.687Z,97735.00
2023-04-05T16:47:01.927Z,97731.00
2023-04-05T16:49:30.220Z,97740.00
2023-04-05T16:51:58.491Z,97730.00
2023-04-05T16:54:26.967Z,97742.00
2023-04-05T16:56:56.239Z,97740.00
2023-04-05T16:59:24.659Z,97739.00
2023-04-05T17:01:53.052Z,97736.00
2023-04-05T17:04:22.801Z,97728.00
2023-04-05T17:06:51.558Z,97732.00
2023-04-05T17:09:20.008Z,97737.00
2023-04-05T17:11:48.374Z,97742.00
2023-04-05T17:14:16.717Z,97736.00
2023-04-05T17:16:44.981Z,97736.00
2023-04-05T17:19:13.337Z,97752.00
2023-04-05T17:21:45.097Z,97744.00
2023-04-05T17:24:13.532Z,97731.00
2023-04-05T17:26:42.501Z,97735.00
2023-04-05T17:29:11.881Z,97739.00
2023-04-05T17:31:41.837Z,97737.00
2023-04-05T17:34:13.142Z,97729.00
2023-04-05T17:36:43.935Z,97749.00
2023-04-05T17:39:12.272Z,97742.00
2023-04-05T17:41:40.687Z,97739.00
2023-04-05T17:44:09.172Z,97746.00
2023-04-05T17:46:41.621Z,97742.00
2023-04-05T17:49:13.169Z,97745.00
2023-04-05T17:51:43.203Z,97741.00
2023-04-05T17:54:12.376Z,97750.00
2023-04-05T17:56:40.860Z,97745.00
2023-04-05T17:59:09.451Z,97747.00
2023-04-05T18:01:38.204Z,97748.00
2023-04-05T18:04:08.797Z,97758.00
2023-04-05T18:06:38.626Z,97757.00
2023-04-05T18:09:08.734Z,97755.00
2023-04-05T18:11:37.313Z,97756.00
2023-04-05T18:14:05.647Z,97765.00
2023-04-05T18:16:34.533Z,97758.00
2023-04-05T18:19:03.221Z,97756.00
2023-04-05T18:21:32.144Z,97762.00
2023-04-05T18:24:00.511Z,97775.00
2023-04-05T18:26:32.010Z,97767.00
2023-04-05T18:29:02.251Z,97791.00
2023-04-05T18:31:30.952Z,97785.00
2023-04-05T18:34:04.844Z,97782.00
2023-04-05T18:36:33.434Z,97789.00
2023-04-05T18:39:03.696Z,97783.00
2023-04-05T18:41:33.574Z,97783.00
2023-04-05T18:44:01.992Z,97783.00
2023-04-05T18:46:30.395Z,97783.00
2023-04-05T18:48:58.816Z,97794.00
2023-04-05T18:51:28.438Z,97792.00
2023-04-05T18:53:57.533Z,97783.00
2023-04-05T18:56:27.539Z,97803.00
2023-04-05T18:58:57.412Z,97794.00
2023-04-05T19:01:26.021Z,97797.00
2023-04-05T19:03:54.450Z,97791.00
2023-04-05T19:06:22.884Z,97794.00
2023-04-05T19:08:51.256Z,97805.00
2023-04-05T19:11:20.445Z,97808.00
2023-04-05T19:13:48.764Z,97804.00
2023-04-05T19:16:18.584Z,97801.00
2023-04-05T19:18:46.948Z,97799.00
2023-04-05T19:21:15.362Z,97807.00
2023-04-05T19:23:46.822Z,97815.00
2023-04-05T19:26:15.186Z,97809.00
2023-04-05T19:28:43.564Z,97811.00
2023-04-05T19:31:12.007Z,97810.00
2023-04-05T19:33:42.250Z,97812.00
2023-04-05T19:36:10.990Z,97802.00
2023-04-05T19:38:41.372Z,97805.00
2023-04-05T19:41:09.747Z,97818.00
2023-04-05T19:43:40.926Z,97815.00
2023-04-05T19:46:10.832Z,97796.00
2023-04-05T19:48:43.178Z,97819.00
2023-04-05T19:51:14.155Z,97807.00
2023-04-05T19:53:50.937Z,97817.00
2023-04-05T19:56:23.472Z,97795.00
2023-04-05T19:58:57.666Z,97808.00
2023-04-05T20:01:35.570Z,97802.00
2023-04-05T20:04:14.095Z,97806.00
2023-04-05T20:06:43.919Z,97800.00
2023-04-05T20:09:13.622Z,97802.00
2023-04-05T20:11:43.755Z,97803.00
2023-04-05T20:14:12.148Z,97806.00
2023-04-05T20:16:40.701Z,97811.00
2023-04-05T20:19:12.012Z,97800.00
2023-04-05T20:21:41.191Z,97811.00
2023-04-05T20:24:11.342Z,97794.00
2023-04-05T20:26:40.389Z,97804.00
2023-04-05T20:29:11.957Z,97806.00
2023-04-05T20:31:40.564Z,97798.00
2023-04-05T20:34:15.098Z,97799.00
2023-04-05T20:36:50.087Z,97796.00
2023-04-05T20:39:18.959Z,97802.00
2023-04-05T20:41:47.784Z,97801.00
2023-04-05T20:44:16.262Z,97792.00
2023-04-05T20:46:44.648Z,97795.00
2023-04-05T20:49:14.520Z,97790.00
2023-04-05T20:51:43.218Z,97798.00
2023-04-05T20:54:11.735Z,97797.00
2023-04-05T20:56:41.014Z,97807.00
2023-04-05T20:59:09.753Z,97804.00
2023-04-05T21:01:38.677Z,97797.00
2023-04-05T21:04:07.437Z,97804.00
2023-04-05T21:06:37.537Z,97799.00
2023-04-05T21:09:06.365Z,97799.00
2023-04-05T21:11:34.895Z,97794.00
2023-04-05T21:14:03.342Z,97794.00
2023-04-05T21:16:31.885Z,97800.00
2023-04-05T21:19:00.379Z,97802.00
2023-04-05T21:21:28.668Z,97802.00
2023-04-05T21:23:58.373Z,97816.00
2023-04-05T21:26:26.660Z,97801.00
2023-04-05T21:28:54.964Z,97816.00
2023-04-05T21:31:23.306Z,97818.00
2023-04-05T21:33:51.704Z,97812.00
2023-04-05T21:36:20.001Z,97812.00
2023-04-05T21:38:48.331Z,97812.00
2023-04-05T21:41:18.130Z,97803.00
2023-04-05T21:43:46.444Z,97819.00
2023-04-05T21:46:14.774Z,97811.00
2023-04-05T21:48:43.200Z,97806.00
2023-04-05T21:51:11.559Z,97814.00
2023-04-05T21:53:39.880Z,97799.00
2023-04-05T21:56:08.320Z,97799.00
2023-04-05T21:58:38.007Z,97809.00
2023-04-05T22:01:06.438Z,97809.00
2023-04-05T22:03:34.824Z,97805.00
2023-04-05T22:06:03.473Z,97794.00
2023-04-05T22:08:34.085Z,97796.00
2023-04-05T22:11:02.494Z,97802.00
2023-04-05T22:13:30.833Z,97796.00
2023-04-05T22:16:00.633Z,97794.00
2023-04-05T22:18:29.125Z,97807.00
2023-04-05T22:20:57.509Z,97810.00
2023-04-05T22:23:25.858Z,97802.00
2023-04-05T22:25:54.164Z,97805.00
2023-04-05T22:28:22.951Z,97815.00
2023-04-05T22:30:51.539Z,97813.00
2023-04-05T22:33:21.658Z,97811.00
2023-04-05T22:35:50.104Z,97800.00
2023-04-05T22:38:18.453Z,97804.00
2023-04-05T22:40:46.797Z,97810.00
2023-04-05T22:43:15.124Z,97807.00
2023-04-05T22:45:43.452Z,97804.00
2023-04-05T22:48:11.818Z,97798.00
2023-04-05T22:50:41.531Z,97810.00
2023-04-05T22:53:09.836Z,97804.00
2023-04-05T22:55:39.889Z,97807.00
2023-04-05T22:58:08.562Z,97805.00
2023-04-05T23:00:37.988Z,97803.00
2023-04-05T23:03:06.547Z,97806.00
2023-04-05T23:05:36.647Z,97806.00
2023-04-05T23:08:06.544Z,97796.00
2023-04-05T23:10:34.948Z,97806.00
2023-04-05T23:13:03.368Z,97806.00
2023-04-05T23:15:31.746Z,97802.00
2023-04-05T23:18:00.224Z,97785.00
2023-04-05T23:20:28.533Z,97798.00
2023-04-05T23:22:56.964Z,97796.00
2023-04-05T23:25:26.641Z,97790.00
2023-04-05T23:27:55.036Z,97797.00
2023-04-05T23:30:23.491Z,97800.00
2023-04-05T23:32:51.916Z,97800.00
2023-04-05T23:35:21.127Z,97804.00
2023-04-05T23:37:49.361Z,97804.00
2023-04-05T23:40:17.883Z,97804.00
2023-04-05T23:42:47.577Z,97802.00
2023-04-05T23:45:16.159Z,97798.00
2023-04-05T23:47:44.463Z,97814.00
2023-04-05T23:50:12.844Z,97805.00
2023-04-05T23:52:41.299Z,97803.00
2023-04-05T23:55:10.509Z,97804.00
2023-04-05T23:57:38.801Z,97785.00
